Time;durP1;ratioP1;P1;durP2;ratioP2;P2;SDS_P1;SDS_P2;PMS_P1;PMS_P2;Temp;Humidity;BMP_temperature;BMP_pressure;BME280_temperature;BME280_humidity;BME280_pressure;Samples;Min_cycle;Max_cycle;Signal;HPM_P1;HPM_P2
2022/05/11 00:00:26;;;;;;;4.15;2.83;;;;;;;14.33;50.33;94176.88;4980338;28;21119;-72
2022/05/11 00:02:52;;;;;;;4.43;3.33;;;;;;;14.40;50.05;94174.47;4992938;28;20433;-73
2022/05/11 00:05:17;;;;;;;5.22;3.38;;;;;;;14.47;49.96;94180.84;4994721;28;20439;-73
2022/05/11 00:07:42;;;;;;;4.25;2.85;;;;;;;14.44;49.97;94189.53;4980317;28;20121;-73
2022/05/11 00:10:12;;;;;;;3.72;3.03;;;;;;;14.41;50.37;94195.56;4985330;28;20077;-75
2022/05/11 00:12:39;;;;;;;3.33;3.03;;;;;;;14.44;50.33;94200.25;4991134;28;20117;-72
2022/05/11 00:15:05;;;;;;;3.75;3.05;;;;;;;14.21;50.61;94185.63;4989456;28;20090;-72
2022/05/11 00:17:31;;;;;;;6.72;4.55;;;;;;;14.19;50.52;94195.88;4992541;28;20374;-73
2022/05/11 00:19:56;;;;;;;4.25;2.95;;;;;;;14.13;50.80;94183.81;4985315;28;20042;-72
2022/05/11 00:22:21;;;;;;;3.65;2.75;;;;;;;14.12;50.44;94185.72;4990891;28;20038;-73
2022/05/11 00:24:47;;;;;;;4.47;2.88;;;;;;;13.99;51.02;94169.88;4985931;28;20132;-73
2022/05/11 00:27:12;;;;;;;3.38;2.67;;;;;;;14.02;51.42;94171.94;4990616;28;20037;-73
2022/05/11 00:29:37;;;;;;;5.72;3.22;;;;;;;14.01;51.36;94171.16;4987446;28;20509;-73
2022/05/11 00:32:03;;;;;;;4.07;2.88;;;;;;;13.94;51.17;94148.69;4991311;28;21278;-73
2022/05/11 00:34:28;;;;;;;5.22;2.47;;;;;;;13.96;51.18;94155.28;4983855;28;20411;-72
2022/05/11 00:36:54;;;;;;;3.35;2.63;;;;;;;13.97;51.05;94162.22;4985173;28;20034;-73
2022/05/11 00:39:19;;;;;;;8.38;3.63;;;;;;;13.92;51.08;94150.91;4987061;28;20564;-72
2022/05/11 00:41:46;;;;;;;3.85;2.67;;;;;;;13.82;50.95;94135.25;4952235;28;20125;-73
2022/05/11 00:44:12;;;;;;;4.88;2.95;;;;;;;13.77;50.18;94127.44;4973921;28;20547;-73
2022/05/11 00:46:57;;;;;;;4.32;2.58;;;;;;;13.86;49.83;94136.97;4965164;28;21019;-72
2022/05/11 00:49:36;;;;;;;2.90;2.60;;;;;;;13.88;49.73;94139.31;4967457;28;20039;-73
2022/05/11 00:52:12;;;;;;;3.33;2.75;;;;;;;13.93;50.12;94152.50;4970116;28;20062;-73
2022/05/11 00:54:47;;;;;;;3.92;2.70;;;;;;;13.77;50.42;94144.25;4964776;28;20563;-74
2022/05/11 00:57:21;;;;;;;5.30;2.70;;;;;;;13.80;50.60;94142.81;4961715;28;20043;-73
2022/05/11 00:59:50;;;;;;;5.25;2.70;;;;;;;13.75;50.50;94144.56;4968679;28;20022;-73
2022/05/11 01:02:17;;;;;;;4.13;2.35;;;;;;;13.83;50.77;94169.69;4966695;28;20633;-72
2022/05/11 01:04:44;;;;;;;3.20;2.90;;;;;;;13.85;50.50;94162.13;4972584;28;20515;-73
2022/05/11 01:07:13;;;;;;;3.80;2.75;;;;;;;13.87;50.45;94165.28;4967320;28;20222;-74
2022/05/11 01:09:39;;;;;;;2.78;2.40;;;;;;;13.80;50.29;94174.88;4967878;28;20137;-73
2022/05/11 01:12:09;;;;;;;4.78;2.70;;;;;;;13.76;50.58;94169.41;4967694;28;20069;-74
2022/05/11 01:14:38;;;;;;;4.15;2.08;;;;;;;13.69;50.47;94155.78;4970378;28;20556;-73
2022/05/11 01:17:04;;;;;;;4.38;2.40;;;;;;;13.75;50.54;94184.66;4963473;28;20042;-73
2022/05/11 01:19:35;;;;;;;5.47;2.58;;;;;;;13.63;50.55;94176.56;4967269;28;20038;-72
2022/05/11 01:22:09;;;;;;;3.97;2.42;;;;;;;13.69;50.40;94185.19;4966612;28;20479;-73
2022/05/11 01:24:41;;;;;;;4.53;2.67;;;;;;;13.63;50.72;94187.28;4959171;28;20110;-72
2022/05/11 01:27:25;;;;;;;4.93;2.70;;;;;;;13.57;50.97;94175.16;4960528;28;22000;-72
2022/05/11 01:29:51;;;;;;;3.45;2.53;;;;;;;13.56;51.14;94170.13;4965154;28;20092;-72
2022/05/11 01:32:21;;;;;;;3.58;2.70;;;;;;;13.54;51.16;94169.69;4964052;28;20057;-73
2022/05/11 01:34:50;;;;;;;5.13;2.50;;;;;;;13.52;51.05;94164.66;4964508;28;20419;-73
2022/05/11 01:37:17;;;;;;;4.05;2.75;;;;;;;13.51;50.88;94168.44;4960464;28;20447;-73
2022/05/11 01:39:44;;;;;;;4.60;2.80;;;;;;;13.47;51.19;94156.81;4958210;28;20088;-73
2022/05/11 01:42:11;;;;;;;3.17;2.42;;;;;;;13.58;50.72;94157.25;4964450;28;20046;-73
2022/05/11 01:44:36;;;;;;;5.72;3.50;;;;;;;13.50;51.03;94163.41;4971426;28;20038;-73
2022/05/11 01:47:02;;;;;;;3.63;2.72;;;;;;;13.51;50.93;94162.28;4952846;28;20107;-74
2022/05/11 01:49:27;;;;;;;4.20;2.63;;;;;;;13.48;50.84;94163.75;4960887;28;20038;-74
2022/05/11 01:51:53;;;;;;;5.22;2.55;;;;;;;13.45;51.00;94152.88;4965212;28;20046;-73
2022/05/11 01:54:19;;;;;;;7.22;3.20;;;;;;;13.43;50.97;94155.91;4963974;28;20450;-73
2022/05/11 01:56:45;;;;;;;4.55;3.58;;;;;;;13.35;51.12;94154.03;4962209;28;20039;-73
2022/05/11 01:59:10;;;;;;;3.67;2.53;;;;;;;13.21;51.08;94137.44;4957582;28;20033;-73
2022/05/11 02:01:39;;;;;;;4.68;2.60;;;;;;;13.19;51.24;94148.47;4968022;28;20051;-74
2022/05/11 02:07:49;;;;;;;3.40;2.53;;;;;;;13.22;51.40;94160.38;4964255;28;20098;-75
2022/05/11 02:09:34;;;;;;;4.13;3.13;;;;;;;13.17;51.51;94147.22;4958796;28;20112;-74
2022/05/11 02:11:59;;;;;;;4.15;2.85;;;;;;;13.07;51.80;94139.56;4970748;28;20105;-74
2022/05/11 02:14:25;;;;;;;4.70;2.70;;;;;;;13.22;51.65;94163.06;4959354;28;20058;-74
2022/05/11 02:16:50;;;;;;;4.65;2.90;;;;;;;13.13;51.81;94151.63;4967866;28;20038;-74
2022/05/11 02:19:15;;;;;;;3.92;2.45;;;;;;;13.18;51.85;94164.81;4956977;28;20573;-74
2022/05/11 02:21:41;;;;;;;3.55;2.80;;;;;;;13.20;51.70;94159.94;4967742;28;20035;-74
2022/05/11 02:24:06;;;;;;;9.00;3.88;;;;;;;13.02;51.81;94147.75;4961585;28;21071;-75
2022/05/11 02:26:33;;;;;;;3.58;2.63;;;;;;;13.09;52.08;94164.06;4968428;28;20097;-74
2022/05/11 02:28:59;;;;;;;4.45;2.88;;;;;;;12.96;52.02;94135.69;4970040;28;20038;-75
2022/05/11 02:31:24;;;;;;;5.93;2.92;;;;;;;13.13;51.92;94155.09;4964337;28;20034;-75
2022/05/11 02:33:49;;;;;;;6.13;3.13;;;;;;;13.17;51.75;94157.91;4965135;28;20145;-74
2022/05/11 02:36:15;;;;;;;3.40;2.47;;;;;;;13.09;52.05;94150.72;4963040;28;20041;-74
2022/05/11 02:38:42;;;;;;;2.85;2.30;;;;;;;13.17;52.17;94150.66;4963876;28;20757;-76
2022/05/11 02:41:07;;;;;;;4.07;3.10;;;;;;;13.11;52.02;94140.47;4969107;28;20043;-74
2022/05/11 02:43:33;;;;;;;6.15;2.97;;;;;;;13.13;52.53;94146.28;4960370;28;20050;-74
2022/05/11 02:45:58;;;;;;;5.25;3.05;;;;;;;13.13;52.58;94155.09;4970010;28;20046;-75
2022/05/11 02:48:25;;;;;;;3.95;3.20;;;;;;;13.09;52.69;94159.50;4962389;28;20042;-75
2022/05/11 02:50:55;;;;;;;5.13;2.88;;;;;;;13.13;52.47;94164.97;4968973;28;20422;-73
2022/05/11 02:53:22;;;;;;;3.28;2.60;;;;;;;13.15;52.25;94160.13;4962873;28;20033;-73
2022/05/11 02:55:51;;;;;;;4.38;3.15;;;;;;;13.13;52.32;94170.31;4966460;28;20057;-73
2022/05/11 02:58:17;;;;;;;4.45;2.22;;;;;;;13.12;52.27;94156.19;4968103;28;20035;-72
2022/05/11 03:00:45;;;;;;;3.65;2.60;;;;;;;13.10;52.17;94158.41;4960734;28;20425;-74
2022/05/11 03:03:14;;;;;;;3.17;2.45;;;;;;;13.00;52.50;94140.06;4965083;28;20042;-72
2022/05/11 03:05:41;;;;;;;4.13;2.90;;;;;;;13.22;52.47;94171.06;4964061;28;20911;-73
2022/05/11 03:08:07;;;;;;;4.07;2.83;;;;;;;13.23;52.47;94178.78;4966922;28;20045;-72
2022/05/11 03:10:32;;;;;;;2.38;2.17;;;;;;;13.23;52.50;94175.31;4967034;28;20464;-75
2022/05/11 03:12:58;;;;;;;3.13;2.60;;;;;;;13.24;52.88;94174.22;4969009;28;20034;-74
2022/05/11 03:15:24;;;;;;;4.05;3.20;;;;;;;13.27;52.74;94182.38;4963628;28;20615;-73
2022/05/11 03:17:49;;;;;;;6.50;2.88;;;;;;;13.22;53.39;94176.41;4969656;28;20023;-74
2022/05/11 03:20:15;;;;;;;3.55;3.03;;;;;;;13.25;53.06;94183.81;4965112;28;20141;-74
2022/05/11 03:22:41;;;;;;;35.72;4.30;;;;;;;13.22;53.80;94179.09;4968984;28;20034;-74
2022/05/11 03:25:10;;;;;;;4.05;3.08;;;;;;;13.27;53.89;94192.25;4969093;28;20049;-74
2022/05/11 03:27:35;;;;;;;4.13;2.67;;;;;;;13.25;53.55;94173.88;4960793;28;20073;-75
2022/05/11 03:30:01;;;;;;;5.97;2.45;;;;;;;13.33;53.65;94183.75;4967395;28;20118;-74
2022/05/11 03:35:11;;;;;;;4.75;2.80;;;;;;;13.38;53.62;94185.47;4988460;28;20108;-74
2022/05/11 03:37:37;;;;;;;4.22;3.05;;;;;;;13.45;53.44;94190.28;4974843;28;20132;-75
2022/05/11 03:40:07;;;;;;;3.97;2.53;;;;;;;12.84;53.54;94086.41;4964419;28;20511;-74
2022/05/11 03:42:33;;;;;;;3.10;2.38;;;;;;;13.55;53.51;94182.69;4961828;28;20049;-74
2022/05/11 03:45:17;;;;;;;8.65;3.45;;;;;;;13.59;53.44;94191.66;4961776;28;20034;-74
2022/05/11 03:47:45;;;;;;;4.97;2.85;;;;;;;13.52;54.04;94194.03;4972605;28;20130;-75
2022/05/11 03:50:11;;;;;;;3.20;2.55;;;;;;;13.38;53.75;94169.44;4984432;28;20073;-75
2022/05/11 03:52:37;;;;;;;4.13;2.67;;;;;;;13.57;53.40;94193.06;4981361;28;20510;-74
2022/05/11 03:55:04;;;;;;;4.68;2.72;;;;;;;13.51;53.78;94186.34;4982818;28;20643;-74
2022/05/11 03:57:29;;;;;;;5.03;3.00;;;;;;;13.40;53.63;94171.81;4987525;28;20209;-74
2022/05/11 03:59:55;;;;;;;5.90;2.92;;;;;;;13.29;53.62;94172.16;4991274;28;20378;-74
2022/05/11 04:02:20;;;;;;;4.18;2.92;;;;;;;13.48;53.80;94203.81;4965234;28;20434;-74
2022/05/11 04:04:46;;;;;;;7.95;3.25;;;;;;;13.34;53.67;94187.22;4984686;28;20189;-74
2022/05/11 04:07:11;;;;;;;3.55;2.97;;;;;;;13.51;53.60;94199.69;4976515;28;20034;-74
2022/05/11 04:09:36;;;;;;;7.40;3.83;;;;;;;13.50;53.96;94201.59;4967183;28;20074;-74
2022/05/11 04:12:02;;;;;;;10.20;4.68;;;;;;;13.39;53.96;94179.03;4970593;28;20205;-74
2022/05/11 04:14:27;;;;;;;6.20;3.75;;;;;;;13.67;54.11;94211.44;4983702;28;20129;-76
2022/05/11 04:16:56;;;;;;;8.70;4.32;;;;;;;13.68;54.37;94189.75;4985832;28;20135;-76
2022/05/11 04:19:21;;;;;;;8.05;4.95;;;;;;;13.80;54.65;94213.09;4986798;28;20065;-73
2022/05/11 04:21:47;;;;;;;5.72;4.25;;;;;;;13.85;54.23;94199.56;4988735;28;20049;-74
2022/05/11 04:24:12;;;;;;;7.35;5.93;;;;;;;14.05;53.36;94214.06;4982104;28;20034;-73
2022/05/11 04:26:37;;;;;;;10.65;5.70;;;;;;;13.85;54.02;94204.91;4987582;28;20069;-73
2022/05/11 04:29:03;;;;;;;8.10;5.28;;;;;;;13.83;54.45;94195.66;4987051;28;20053;-73
2022/05/11 04:31:28;;;;;;;11.02;5.65;;;;;;;14.03;54.13;94227.00;4985333;28;20296;-75
2022/05/11 04:33:53;;;;;;;10.20;5.78;;;;;;;14.13;54.21;94240.75;4978520;28;20042;-74
2022/05/11 04:36:20;;;;;;;5.30;4.45;;;;;;;13.82;53.57;94228.84;4965185;28;20046;-73
2022/05/11 04:38:46;;;;;;;11.73;5.93;;;;;;;13.88;53.19;94217.63;4969087;28;20531;-74
2022/05/11 04:41:11;;;;;;;7.85;5.45;;;;;;;14.15;52.54;94240.44;4988508;28;20112;-74
2022/05/11 04:43:37;;;;;;;7.93;4.78;;;;;;;14.22;52.81;94242.59;4975860;28;20442;-74
2022/05/11 04:46:02;;;;;;;6.13;4.50;;;;;;;14.32;52.09;94240.31;4991093;28;20104;-73
2022/05/11 04:48:27;;;;;;;14.25;5.07;;;;;;;14.28;51.65;94219.88;4976936;28;20051;-74
2022/05/11 04:51:00;;;;;;;6.32;4.30;;;;;;;14.45;52.01;94244.63;4973828;28;20144;-75
2022/05/11 04:53:25;;;;;;;6.25;3.72;;;;;;;14.55;50.94;94246.16;4971678;28;20682;-74
2022/05/11 04:55:50;;;;;;;6.90;3.90;;;;;;;14.72;51.13;94243.31;4970581;28;20059;-75
2022/05/11 04:58:16;;;;;;;6.72;4.32;;;;;;;14.83;50.40;94243.72;4968634;28;20092;-74
2022/05/11 05:00:41;;;;;;;8.55;4.07;;;;;;;14.89;49.60;94242.41;4963418;28;20959;-76
2022/05/11 05:03:09;;;;;;;9.43;5.43;;;;;;;13.88;52.30;94214.97;4972294;28;20467;-74
2022/05/11 05:05:34;;;;;;;7.90;5.05;;;;;;;14.44;51.66;94245.72;4967413;28;20026;-73
2022/05/11 05:08:00;;;;;;;10.20;5.65;;;;;;;14.69;51.32;94249.34;4971585;28;20038;-74
2022/05/11 05:10:25;;;;;;;9.60;5.93;;;;;;;14.65;53.42;94228.91;4967567;28;20491;-74
2022/05/11 05:12:50;;;;;;;10.50;6.78;;;;;;;13.58;56.23;94226.72;4964999;28;20049;-75
2022/05/11 05:15:17;;;;;;;8.45;5.72;;;;;;;13.55;56.71;94254.06;4966273;28;20031;-73
2022/05/11 05:17:43;;;;;;;9.00;5.97;;;;;;;13.75;57.15;94240.81;4969334;28;20309;-74
2022/05/11 05:20:11;;;;;;;10.30;5.65;;;;;;;14.42;55.16;94255.97;4966169;28;20039;-74
2022/05/11 05:22:37;;;;;;;7.63;5.07;;;;;;;14.18;54.40;94258.50;4962336;28;20057;-74
2022/05/11 05:25:04;;;;;;;5.70;4.72;;;;;;;14.56;53.58;94250.41;4966526;28;20481;-73
2022/05/11 05:27:29;;;;;;;10.35;5.30;;;;;;;14.94;52.60;94258.25;4959182;28;20046;-74
2022/05/11 05:32:41;;;;;;;9.82;6.28;;;;;;;15.27;50.59;94259.03;4953619;28;20387;-74
2022/05/11 05:35:09;;;;;;;8.60;5.13;;;;;;;15.28;50.61;94260.59;4963878;28;20042;-74
2022/05/11 05:37:34;;;;;;;9.40;5.47;;;;;;;15.06;50.82;94274.38;4956932;28;20340;-73
2022/05/11 05:40:01;;;;;;;8.98;5.88;;;;;;;15.12;50.81;94256.97;4967137;28;20641;-74
2022/05/11 05:42:27;;;;;;;12.00;5.65;;;;;;;15.07;51.51;94270.56;4961086;28;20169;-74
2022/05/11 05:44:53;;;;;;;10.55;5.82;;;;;;;14.47;52.72;94258.44;4969331;28;20414;-73
2022/05/11 05:47:19;;;;;;;8.40;7.55;;;;;;;14.53;53.60;94283.94;4963964;28;20069;-75
2022/05/11 05:49:45;;;;;;;9.30;6.38;;;;;;;14.30;53.20;94280.00;4978367;28;20521;-74
2022/05/11 05:52:22;;;;;;;9.52;6.57;;;;;;;14.34;53.65;94282.78;4982721;28;20121;-74
2022/05/11 05:54:50;;;;;;;9.65;6.70;;;;;;;14.49;53.79;94285.69;4982090;28;20046;-74
2022/05/11 05:57:16;;;;;;;13.02;6.88;;;;;;;15.08;52.26;94277.50;4979684;28;20508;-74
2022/05/11 05:59:43;;;;;;;9.23;6.13;;;;;;;15.26;51.24;94294.19;4967349;28;20278;-74
2022/05/11 06:02:12;;;;;;;13.10;6.40;;;;;;;14.78;52.03;94279.50;4995970;28;20048;-74
2022/05/11 06:04:46;;;;;;;8.25;6.57;;;;;;;15.37;50.03;94280.06;4983025;28;20038;-74
2022/05/11 06:07:12;;;;;;;10.88;6.43;;;;;;;15.80;49.61;94303.72;4977976;28;20037;-74
2022/05/11 06:09:39;;;;;;;10.75;6.43;;;;;;;15.93;49.48;94301.06;4975953;28;20042;-74
2022/05/11 06:12:06;;;;;;;9.80;6.30;;;;;;;15.99;48.47;94272.91;4969340;28;20060;-73
2022/05/11 06:14:31;;;;;;;11.70;5.97;;;;;;;16.03;47.80;94274.59;4977123;28;20030;-74
2022/05/11 06:16:59;;;;;;;8.63;5.85;;;;;;;16.19;48.05;94288.88;4961882;28;20042;-75
2022/05/11 06:19:26;;;;;;;7.82;6.95;;;;;;;16.44;48.05;94299.63;4958744;28;20038;-74
2022/05/11 06:21:52;;;;;;;11.05;7.22;;;;;;;16.39;48.01;94276.47;4958604;28;20155;-73
2022/05/11 06:24:17;;;;;;;9.15;6.03;;;;;;;16.20;47.66;94290.44;4954603;28;20038;-74
2022/05/11 06:26:42;;;;;;;12.75;5.53;;;;;;;16.48;47.69;94303.19;4961829;28;20057;-74
2022/05/11 06:29:08;;;;;;;7.15;5.30;;;;;;;16.54;47.51;94304.53;4965121;28;20211;-74
2022/05/11 06:31:33;;;;;;;9.80;5.60;;;;;;;16.12;48.04;94274.47;4972785;28;20038;-74
2022/05/11 06:33:59;;;;;;;8.63;6.28;;;;;;;16.29;48.56;94293.78;4982663;28;20052;-73
2022/05/11 06:36:24;;;;;;;9.23;5.75;;;;;;;16.48;48.56;94303.19;4977406;28;20422;-74
2022/05/11 06:38:52;;;;;;;7.88;5.20;;;;;;;16.32;48.67;94305.78;4985655;28;20113;-75
2022/05/11 06:41:21;;;;;;;8.88;5.80;;;;;;;16.48;47.57;94305.88;4982458;28;20031;-74
2022/05/11 06:43:47;;;;;;;8.15;5.32;;;;;;;16.33;47.40;94298.53;4958063;28;20038;-73
2022/05/11 06:46:13;;;;;;;8.27;4.85;;;;;;;16.42;47.51;94269.66;4962093;28;20082;-74
2022/05/11 06:48:38;;;;;;;5.82;4.13;;;;;;;16.62;47.08;94296.34;4958845;28;20030;-74
2022/05/11 06:51:04;;;;;;;7.28;4.40;;;;;;;16.56;47.33;94280.81;4968157;28;20046;-74
2022/05/11 06:59:16;;;;;;;7.70;4.10;;;;;;;16.35;46.55;94305.09;4975835;28;20036;-74
2022/05/11 07:02:04;;;;;;;6.32;4.07;;;;;;;16.79;46.25;94299.88;4949895;28;20046;-74
2022/05/11 07:04:33;;;;;;;4.78;3.90;;;;;;;16.46;46.53;94297.38;4956646;28;20152;-73
2022/05/11 07:06:59;;;;;;;5.13;3.78;;;;;;;16.74;45.32;94290.16;4976347;28;20530;-74
2022/05/11 07:09:27;;;;;;;8.50;3.28;;;;;;;16.86;44.80;94292.03;4974863;28;20316;-74
2022/05/11 07:14:37;;;;;;;6.78;3.58;;;;;;;17.06;44.36;94294.53;4974657;28;20064;-75
2022/05/11 07:17:03;;;;;;;4.80;3.58;;;;;;;17.30;43.86;94293.69;4970423;28;20514;-75
2022/05/11 07:19:29;;;;;;;5.55;3.35;;;;;;;17.06;43.57;94266.91;4977216;28;20058;-75
2022/05/11 07:21:55;;;;;;;3.45;2.67;;;;;;;16.98;42.76;94271.28;4975972;28;20046;-74
2022/05/11 07:24:21;;;;;;;4.28;2.60;;;;;;;17.23;41.82;94271.19;4972855;28;20522;-74
2022/05/11 07:26:46;;;;;;;3.50;2.58;;;;;;;17.14;42.83;94284.78;4986619;28;20402;-75
2022/05/11 07:29:12;;;;;;;3.88;2.60;;;;;;;17.30;42.64;94276.78;4985355;28;20080;-74
2022/05/11 07:31:38;;;;;;;6.82;2.63;;;;;;;16.83;43.57;94269.31;4986565;28;20330;-74
2022/05/11 07:34:04;;;;;;;4.38;2.42;;;;;;;16.57;43.92;94266.28;4984681;28;20050;-74
2022/05/11 07:36:30;;;;;;;5.70;3.15;;;;;;;16.95;44.26;94277.34;4984036;28;20104;-74
2022/05/11 07:38:55;;;;;;;3.88;2.40;;;;;;;17.16;42.95;94248.38;4987968;28;20030;-74
2022/05/11 07:41:21;;;;;;;3.42;2.28;;;;;;;17.38;41.88;94281.19;4985164;28;20077;-74
2022/05/11 07:43:46;;;;;;;3.28;2.50;;;;;;;17.52;41.80;94278.88;4982274;28;20034;-74
2022/05/11 07:46:12;;;;;;;8.88;4.05;;;;;;;17.30;43.23;94271.41;4981407;28;20042;-74
2022/05/11 07:48:37;;;;;;;6.35;3.17;;;;;;;17.21;42.92;94258.09;4984671;28;20663;-75
2022/05/11 07:51:03;;;;;;;4.72;2.35;;;;;;;17.10;42.87;94273.13;4979179;28;20029;-73
2022/05/11 07:53:28;;;;;;;4.63;2.45;;;;;;;17.46;42.46;94248.00;4984000;28;20038;-75
2022/05/11 08:01:22;;;;;;;4.25;2.88;;;;;;;17.70;43.03;94260.53;4988337;28;20049;-74
2022/05/11 08:03:48;;;;;;;5.53;2.60;;;;;;;17.66;42.98;94251.56;4985445;28;20034;-74
2022/05/11 08:06:16;;;;;;;3.78;2.53;;;;;;;17.51;43.27;94261.19;4981671;28;20033;-75
2022/05/11 08:08:42;;;;;;;2.85;2.30;;;;;;;17.70;42.18;94261.28;4965900;28;20106;-74
2022/05/11 08:11:07;;;;;;;6.53;3.00;;;;;;;17.66;42.27;94256.94;4962985;28;20034;-74
2022/05/11 08:13:34;;;;;;;5.18;2.40;;;;;;;17.66;41.30;94241.59;4972437;28;20049;-75
2022/05/11 08:15:59;;;;;;;3.13;2.10;;;;;;;17.80;41.17;94258.06;4983946;28;20042;-74
2022/05/11 08:18:27;;;;;;;5.15;2.72;;;;;;;17.98;40.20;94248.56;4982917;28;20121;-74
2022/05/11 08:20:53;;;;;;;2.95;2.35;;;;;;;18.02;40.18;94222.50;4966690;28;20030;-75
2022/05/11 08:23:19;;;;;;;3.15;2.13;;;;;;;18.09;41.30;94264.19;4986342;28;20442;-73
2022/05/11 08:25:49;;;;;;;2.25;1.92;;;;;;;18.17;40.07;94244.38;4967094;28;20579;-74
2022/05/11 08:28:22;;;;;;;5.45;1.75;;;;;;;18.15;38.24;94252.00;4962232;28;20049;-74
2022/05/11 08:33:34;;;;;;;;;;;;;;;18.09;38.24;94242.66;4966373;28;20046;-74
2022/05/11 08:36:04;;;;;;;3.20;1.55;;;;;;;17.62;39.00;94246.09;4964579;28;20015;-74
2022/05/11 08:38:37;;;;;;;3.28;1.83;;;;;;;17.38;38.91;94197.84;4962154;28;20517;-74
2022/05/11 08:41:15;;;;;;;5.93;2.17;;;;;;;17.77;38.99;94250.69;4969097;28;20046;-74
2022/05/11 08:43:42;;;;;;;3.00;2.17;;;;;;;17.94;38.53;94249.59;4967295;28;20038;-74
2022/05/11 08:46:13;;;;;;;3.45;2.47;;;;;;;17.89;38.63;94250.59;4967163;28;20054;-75
2022/05/11 08:49:03;;;;;;;4.30;2.10;;;;;;;18.00;37.79;94248.97;4975354;28;20067;-73
2022/05/11 08:51:48;;;;;;;2.63;1.95;;;;;;;18.18;40.11;94249.41;4980097;28;20042;-75
2022/05/11 08:54:35;;;;;;;3.92;2.25;;;;;;;18.08;37.78;94251.84;4982124;28;20129;-74
2022/05/11 08:57:05;;;;;;;2.30;1.75;;;;;;;18.17;37.66;94250.53;4982682;28;20026;-75
2022/05/11 08:59:32;;;;;;;3.80;1.98;;;;;;;18.30;37.73;94241.19;4982861;28;20390;-74
2022/05/11 09:02:05;;;;;;;2.58;1.85;;;;;;;18.15;38.53;94243.91;4986052;28;20038;-75
2022/05/11 09:04:50;;;;;;;2.17;1.95;;;;;;;17.99;37.88;94242.03;4985068;28;20038;-74
2022/05/11 09:07:16;;;;;;;3.08;2.40;;;;;;;18.21;38.74;94245.22;4978672;28;20057;-74
2022/05/11 09:09:41;;;;;;;3.00;2.10;;;;;;;18.01;39.22;94239.78;4983354;28;20466;-74
2022/05/11 09:12:08;;;;;;;2.22;1.95;;;;;;;17.56;38.67;94224.06;4980072;28;20042;-74
2022/05/11 09:14:40;;;;;;;2.13;1.80;;;;;;;17.94;37.08;94226.16;4985938;28;20037;-74
2022/05/11 09:17:28;;;;;;;2.58;1.90;;;;;;;18.24;36.95;94244.50;4983750;28;20087;-75
2022/05/11 09:20:00;;;;;;;5.15;1.92;;;;;;;18.32;38.40;94246.25;4987976;28;20053;-74
2022/05/11 09:22:26;;;;;;;2.60;1.80;;;;;;;18.41;38.17;94249.53;4980888;28;20049;-73
2022/05/11 09:24:58;;;;;;;3.90;2.03;;;;;;;18.46;37.25;94246.56;4984948;28;20633;-74
2022/05/11 09:27:25;;;;;;;2.40;1.88;;;;;;;18.48;37.19;94242.38;4985495;28;20038;-73
2022/05/11 09:30:01;;;;;;;1.55;1.30;;;;;;;18.33;36.62;94239.72;4979437;28;20053;-73
2022/05/11 09:32:26;;;;;;;2.38;1.60;;;;;;;18.06;37.56;94243.31;4977609;28;20478;-72
2022/05/11 09:34:52;;;;;;;4.47;1.98;;;;;;;17.88;36.81;94211.38;4983154;28;20052;-73
2022/05/11 09:37:34;;;;;;;2.33;1.38;;;;;;;17.88;37.67;94245.59;4973724;28;20054;-73
2022/05/11 09:40:13;;;;;;;2.08;1.85;;;;;;;17.86;37.10;94224.41;4964340;28;20561;-72
2022/05/11 09:42:55;;;;;;;2.83;1.90;;;;;;;17.97;37.56;94235.44;4965307;28;20052;-75
2022/05/11 09:45:47;;;;;;;3.17;1.65;;;;;;;17.91;38.22;94228.72;4969198;28;20480;-75
2022/05/11 09:48:18;;;;;;;2.55;1.70;;;;;;;17.80;38.38;94236.53;4982157;28;20041;-74
2022/05/11 09:50:45;;;;;;;2.55;2.05;;;;;;;17.88;38.51;94222.16;4980647;28;20485;-74
2022/05/11 09:53:33;;;;;;;3.08;2.22;;;;;;;18.10;39.27;94225.34;4966267;28;20547;-74
2022/05/11 09:56:29;;;;;;;3.05;2.08;;;;;;;18.31;38.24;94210.47;4966402;28;20407;-73
2022/05/11 09:58:54;;;;;;;2.20;1.85;;;;;;;18.15;38.38;94214.31;4961130;28;20132;-74
2022/05/11 10:01:29;;;;;;;2.60;1.92;;;;;;;18.37;37.60;94222.53;4969007;28;20034;-74
2022/05/11 10:04:04;;;;;;;1.95;1.63;;;;;;;18.51;37.66;94215.88;4952509;28;20047;-74
2022/05/11 10:06:38;;;;;;;3.97;1.85;;;;;;;18.44;36.29;94186.88;4965921;28;20038;-74
2022/05/11 10:09:05;;;;;;;1.98;1.65;;;;;;;18.41;35.88;94204.53;4961357;28;20034;-74
2022/05/11 10:11:46;;;;;;;3.55;1.38;;;;;;;17.92;37.12;94206.88;4970855;28;20026;-74
2022/05/11 10:22:50;;;;;;;2.85;1.83;;;;;;;18.82;35.25;94186.91;4979256;28;20048;-74
2022/05/11 10:25:15;;;;;;;2.38;1.58;;;;;;;19.11;35.50;94204.41;4971967;28;20038;-74
2022/05/11 10:27:48;;;;;;;1.80;1.48;;;;;;;19.19;36.76;94198.00;4967418;28;20077;-75
2022/05/11 10:30:16;;;;;;;6.57;1.60;;;;;;;19.26;34.61;94191.97;4960329;28;20073;-75
2022/05/11 10:32:52;;;;;;;2.08;1.35;;;;;;;19.26;34.35;94191.97;4965259;28;20030;-74
2022/05/11 10:35:22;;;;;;;1.38;1.20;;;;;;;19.09;35.79;94203.97;4986385;28;20042;-74
2022/05/11 10:37:53;;;;;;;3.05;1.50;;;;;;;19.25;34.74;94196.56;4983596;28;20355;-75
2022/05/11 10:40:32;;;;;;;4.97;1.92;;;;;;;18.98;35.11;94180.63;4970733;28;20039;-75
2022/05/11 10:43:30;;;;;;;1.90;1.70;;;;;;;19.42;34.54;94198.00;4979857;28;20057;-74
2022/05/11 10:46:17;;;;;;;2.30;1.63;;;;;;;19.32;34.56;94190.50;4985015;28;20177;-75
2022/05/11 10:48:52;;;;;;;8.82;1.80;;;;;;;19.10;34.47;94204.75;4984301;28;20038;-75
2022/05/11 10:51:43;;;;;;;2.22;1.42;;;;;;;18.97;34.52;94196.03;4963420;28;20074;-73
2022/05/11 10:54:28;;;;;;;1.42;1.17;;;;;;;19.31;34.26;94197.81;4979406;28;20042;-75
2022/05/11 10:57:06;;;;;;;;;;;;;;;18.95;35.40;94198.31;4986501;28;20038;-73
2022/05/11 10:59:49;;;;;;;2.60;1.65;;;;;;;18.96;36.12;94194.50;4991526;28;19917;-74
2022/05/11 11:02:39;;;;;;;4.65;2.17;;;;;;;19.29;34.49;94202.03;4972362;28;20380;-73
2022/05/11 11:05:09;;;;;;;1.63;1.50;;;;;;;19.35;34.68;94197.91;4974390;28;20394;-74
2022/05/11 11:07:45;;;;;;;3.22;1.77;;;;;;;18.63;35.21;94183.41;4976383;28;20172;-75
2022/05/11 11:10:19;;;;;;;1.98;1.50;;;;;;;18.85;35.26;94199.69;5004521;28;20121;-75
2022/05/11 11:12:48;;;;;;;2.75;2.00;;;;;;;18.78;36.19;94194.13;4982601;28;20034;-74
2022/05/11 11:15:17;;;;;;;2.03;1.83;;;;;;;18.91;36.51;94197.47;4972545;28;20046;-74
2022/05/11 11:17:46;;;;;;;5.53;2.05;;;;;;;18.46;38.00;94201.56;4989655;28;20030;-74
2022/05/11 11:20:14;;;;;;;3.90;1.88;;;;;;;18.49;38.97;94205.44;4972675;28;20073;-75
2022/05/11 11:23:25;;;;;;;2.13;1.60;;;;;;;18.25;38.70;94214.56;4968511;28;20063;-73
2022/05/11 11:25:57;;;;;;;2.13;1.77;;;;;;;18.32;38.45;94224.69;4979646;28;20604;-74
2022/05/11 11:28:24;;;;;;;2.83;2.00;;;;;;;18.28;38.69;94223.84;4992160;28;20046;-74
2022/05/11 11:30:59;;;;;;;3.08;1.80;;;;;;;18.16;38.78;94227.44;4986690;28;20537;-74
2022/05/11 11:33:36;;;;;;;1.92;1.45;;;;;;;17.78;38.67;94221.91;4987010;28;20046;-75
2022/05/11 11:36:04;;;;;;;1.60;1.50;;;;;;;17.64;39.56;94233.09;4982935;28;21908;-74
2022/05/11 11:38:39;;;;;;;2.97;1.60;;;;;;;17.58;40.13;94229.88;4989750;28;20426;-74
2022/05/11 11:41:23;;;;;;;1.95;1.48;;;;;;;17.31;40.42;94224.56;4992093;28;20562;-74
2022/05/11 11:44:04;;;;;;;1.88;1.40;;;;;;;17.39;40.06;94220.94;4978981;28;20124;-75
2022/05/11 11:46:36;;;;;;;2.30;1.70;;;;;;;17.45;40.07;94235.69;4989600;28;20050;-74
2022/05/11 11:49:09;;;;;;;1.92;1.45;;;;;;;17.72;39.66;94244.78;4988657;28;20042;-74
2022/05/11 11:52:02;;;;;;;4.80;1.50;;;;;;;18.14;39.51;94239.69;4985541;28;20037;-74
2022/05/11 11:54:34;;;;;;;1.42;1.25;;;;;;;18.16;38.50;94242.78;4986644;28;20084;-74
2022/05/11 11:57:02;;;;;;;4.90;1.80;;;;;;;18.24;37.68;94217.59;4992074;28;20037;-74
2022/05/11 11:59:28;;;;;;;2.42;1.25;;;;;;;18.61;36.51;94232.25;4983363;28;20026;-74
2022/05/11 12:02:03;;;;;;;2.80;1.35;;;;;;;18.52;36.35;94229.00;4989706;28;20049;-74
2022/05/11 12:04:35;;;;;;;1.70;1.40;;;;;;;18.42;36.05;94234.94;4985868;28;20139;-75
2022/05/11 12:15:31;;;;;;;2.17;1.58;;;;;;;19.02;35.47;94211.91;4987445;28;20466;-74
2022/05/11 12:17:57;;;;;;;2.85;1.65;;;;;;;19.42;37.23;94227.69;4989280;28;20030;-74
2022/05/11 12:20:23;;;;;;;2.33;1.80;;;;;;;19.64;35.16;94229.66;4991571;28;20044;-74
2022/05/11 12:22:58;;;;;;;3.38;1.38;;;;;;;19.84;35.37;94224.19;4988351;28;20544;-75
2022/05/11 12:25:26;;;;;;;1.60;1.50;;;;;;;19.97;35.47;94226.31;4980213;28;20045;-74